Unidilla, Georgia
Current Conditions -  °F | °C
As of 6:55 PM on Monday 22 Dec 2014 (Local Time) from KPXE Reporting Station
Light Rain Light Rain  
Wind Chill: 51°   Ceiling: 200
Heat Index: 51°   Visibility: 0.75mi
Dew Point: 49°   Wind: 9mph
Humidity: 92%   Direction: 100°E
Pressure: 29.93"   Gusts: NA
Location:  32.2533°N, 83.7537°W
Report Text: KPXE 222355Z AUTO 10008KT 3/4SM -RA OVC002 11/09 A2993 RMK AO2 LTG DSNT N T01050092 10110 20105
Loading
Personal Weather Stations






























Interactive Weather Map New forecast layout! Learn more

10-Day Weather Forecast

Advertisements
Track Severe Weather on mobile